sensor_id;sensor_type;location;lat;lon;timestamp;pressure;altitude;pressure_sealevel;temperature;humidity
67373;BME280;54257;54.496;18.412;2022-08-01T00:01:29;99519.11;;;12.39;68.56
67373;BME280;54257;54.496;18.412;2022-08-01T00:03:57;99517.92;;;12.39;68.64
67373;BME280;54257;54.496;18.412;2022-08-01T00:06:24;99518.08;;;12.39;68.79
67373;BME280;54257;54.496;18.412;2022-08-01T00:08:52;99517.23;;;12.42;68.95
67373;BME280;54257;54.496;18.412;2022-08-01T00:11:19;99521.17;;;12.45;69.01
67373;BME280;54257;54.496;18.412;2022-08-01T00:13:46;99522.73;;;12.49;69.13
67373;BME280;54257;54.496;18.412;2022-08-01T00:16:13;99517.41;;;12.53;69.09
67373;BME280;54257;54.496;18.412;2022-08-01T00:18:40;99517.59;;;12.57;69.19
67373;BME280;54257;54.496;18.412;2022-08-01T00:21:07;99516.23;;;12.61;69.42
67373;BME280;54257;54.496;18.412;2022-08-01T00:23:34;99517.61;;;12.66;69.51
67373;BME280;54257;54.496;18.412;2022-08-01T00:26:02;99513.67;;;12.70;69.57
67373;BME280;54257;54.496;18.412;2022-08-01T00:28:29;99509.90;;;12.74;69.70
67373;BME280;54257;54.496;18.412;2022-08-01T00:30:56;99512.64;;;12.81;69.70
67373;BME280;54257;54.496;18.412;2022-08-01T00:33:23;99508.36;;;12.87;69.44
67373;BME280;54257;54.496;18.412;2022-08-01T00:35:50;99510.23;;;12.90;68.88
67373;BME280;54257;54.496;18.412;2022-08-01T00:38:17;99505.77;;;12.92;68.69
67373;BME280;54257;54.496;18.412;2022-08-01T00:40:44;99500.13;;;12.97;68.56
67373;BME280;54257;54.496;18.412;2022-08-01T00:43:11;99500.29;;;13.00;68.08
67373;BME280;54257;54.496;18.412;2022-08-01T00:45:39;99496.86;;;12.98;67.76
67373;BME280;54257;54.496;18.412;2022-08-01T00:48:06;99496.36;;;12.97;67.49
67373;BME280;54257;54.496;18.412;2022-08-01T00:50:33;99492.42;;;12.95;67.35
67373;BME280;54257;54.496;18.412;2022-08-01T00:53:01;99488.63;;;12.93;67.17
67373;BME280;54257;54.496;18.412;2022-08-01T00:55:30;99491.72;;;12.91;67.14
67373;BME280;54257;54.496;18.412;2022-08-01T00:57:58;99490.36;;;12.90;67.19
67373;BME280;54257;54.496;18.412;2022-08-01T01:00:26;99488.13;;;12.87;66.96
67373;BME280;54257;54.496;18.412;2022-08-01T01:02:53;99486.42;;;12.83;66.84
67373;BME280;54257;54.496;18.412;2022-08-01T01:05:20;99486.59;;;12.77;66.60
67373;BME280;54257;54.496;18.412;2022-08-01T01:08:06;99490.02;;;12.71;66.64
67373;BME280;54257;54.496;18.412;2022-08-01T01:11:16;99494.46;;;12.62;66.60
67373;BME280;54257;54.496;18.412;2022-08-01T01:13:44;99496.34;;;12.55;67.08
67373;BME280;54257;54.496;18.412;2022-08-01T01:16:18;99495.14;;;12.48;67.66
67373;BME280;54257;54.496;18.412;2022-08-01T01:18:52;99492.21;;;12.45;67.56
67373;BME280;54257;54.496;18.412;2022-08-01T01:24:17;99487.77;;;12.41;67.87
67373;BME280;54257;54.496;18.412;2022-08-01T01:29:44;99488.98;;;12.48;68.59
67373;BME280;54257;54.496;18.412;2022-08-01T01:34:54;99491.73;;;12.56;68.96
67373;BME280;54257;54.496;18.412;2022-08-01T01:37:23;99489.84;;;12.58;69.19
67373;BME280;54257;54.496;18.412;2022-08-01T01:39:52;99487.77;;;12.60;69.31
67373;BME280;54257;54.496;18.412;2022-08-01T01:42:20;99484.20;;;12.64;69.62
67373;BME280;54257;54.496;18.412;2022-08-01T01:44:50;99480.77;;;12.64;69.61
67373;BME280;54257;54.496;18.412;2022-08-01T01:47:18;99482.30;;;12.63;69.64
67373;BME280;54257;54.496;18.412;2022-08-01T01:49:47;99481.77;;;12.60;69.65
67373;BME280;54257;54.496;18.412;2022-08-01T01:52:16;99486.08;;;12.56;69.50
67373;BME280;54257;54.496;18.412;2022-08-01T01:54:49;99483.99;;;12.51;69.34
67373;BME280;54257;54.496;18.412;2022-08-01T01:57:18;99482.29;;;12.44;69.08
67373;BME280;54257;54.496;18.412;2022-08-01T01:59:46;99480.55;;;12.38;69.21
67373;BME280;54257;54.496;18.412;2022-08-01T02:02:14;99480.73;;;12.32;69.53
67373;BME280;54257;54.496;18.412;2022-08-01T02:04:45;99480.88;;;12.28;69.54
67373;BME280;54257;54.496;18.412;2022-08-01T02:07:18;99480.20;;;12.24;69.17
67373;BME280;54257;54.496;18.412;2022-08-01T02:09:47;99483.29;;;12.23;69.36
67373;BME280;54257;54.496;18.412;2022-08-01T02:12:16;99480.37;;;12.26;69.85
67373;BME280;54257;54.496;18.412;2022-08-01T02:14:45;99483.97;;;12.29;70.00
67373;BME280;54257;54.496;18.412;2022-08-01T02:17:16;99478.16;;;12.30;69.32
67373;BME280;54257;54.496;18.412;2022-08-01T02:19:44;99475.08;;;12.32;69.17
67373;BME280;54257;54.496;18.412;2022-08-01T02:22:32;99477.13;;;12.36;69.17
67373;BME280;54257;54.496;18.412;2022-08-01T02:25:06;99477.33;;;12.39;69.26
67373;BME280;54257;54.496;18.412;2022-08-01T02:27:41;99473.89;;;12.40;69.17
67373;BME280;54257;54.496;18.412;2022-08-01T02:30:12;99473.04;;;12.40;69.06
67373;BME280;54257;54.496;18.412;2022-08-01T02:32:53;99474.73;;;12.37;68.71
67373;BME280;54257;54.496;18.412;2022-08-01T02:35:28;99482.27;;;12.36;69.00
67373;BME280;54257;54.496;18.412;2022-08-01T02:37:58;99479.36;;;12.33;68.87
67373;BME280;54257;54.496;18.412;2022-08-01T02:40:28;99479.36;;;12.30;69.07
67373;BME280;54257;54.496;18.412;2022-08-01T02:42:57;99480.38;;;12.25;69.21
67373;BME280;54257;54.496;18.412;2022-08-01T02:45:32;99478.30;;;12.18;69.07
67373;BME280;54257;54.496;18.412;2022-08-01T02:48:07;99477.43;;;12.12;68.97
67373;BME280;54257;54.496;18.412;2022-08-01T02:50:37;99476.39;;;12.05;69.13
67373;BME280;54257;54.496;18.412;2022-08-01T02:53:06;99475.01;;;12.00;69.07
67373;BME280;54257;54.496;18.412;2022-08-01T02:55:39;99471.06;;;11.97;69.09
67373;BME280;54257;54.496;18.412;2022-08-01T02:58:09;99472.59;;;11.96;69.32
67373;BME280;54257;54.496;18.412;2022-08-01T03:00:37;99472.26;;;11.97;69.56
67373;BME280;54257;54.496;18.412;2022-08-01T03:03:08;99475.86;;;11.97;69.75
67373;BME280;54257;54.496;18.412;2022-08-01T03:05:37;99473.11;;;11.97;70.18
67373;BME280;54257;54.496;18.412;2022-08-01T03:08:08;99473.13;;;11.98;70.28
67373;BME280;54257;54.496;18.412;2022-08-01T03:10:38;99474.32;;;12.01;70.42
67373;BME280;54257;54.496;18.412;2022-08-01T03:13:07;99471.77;;;12.05;70.68
67373;BME280;54257;54.496;18.412;2022-08-01T03:15:38;99469.55;;;12.10;70.82
67373;BME280;54257;54.496;18.412;2022-08-01T03:18:07;99473.83;;;12.12;70.83
67373;BME280;54257;54.496;18.412;2022-08-01T03:20:36;99467.86;;;12.16;70.98
67373;BME280;54257;54.496;18.412;2022-08-01T03:23:07;99466.31;;;12.19;71.08
67373;BME280;54257;54.496;18.412;2022-08-01T03:25:38;99468.05;;;12.24;71.44
67373;BME280;54257;54.496;18.412;2022-08-01T03:28:08;99468.39;;;12.28;71.64
67373;BME280;54257;54.496;18.412;2022-08-01T03:30:37;99468.05;;;12.34;72.01
67373;BME280;54257;54.496;18.412;2022-08-01T03:33:10;99467.55;;;12.40;71.91
67373;BME280;54257;54.496;18.412;2022-08-01T03:35:42;99472.01;;;12.47;72.05
67373;BME280;54257;54.496;18.412;2022-08-01T03:38:13;99473.90;;;12.54;72.40
67373;BME280;54257;54.496;18.412;2022-08-01T03:40:48;99477.15;;;12.60;72.62
67373;BME280;54257;54.496;18.412;2022-08-01T03:43:32;99477.67;;;12.67;72.59
67373;BME280;54257;54.496;18.412;2022-08-01T03:46:08;99477.67;;;12.74;72.94
67373;BME280;54257;54.496;18.412;2022-08-01T03:48:43;99478.36;;;12.85;73.12
67373;BME280;54257;54.496;18.412;2022-08-01T03:51:13;99480.06;;;12.95;73.46
67373;BME280;54257;54.496;18.412;2022-08-01T03:53:42;99485.20;;;13.04;73.59
67373;BME280;54257;54.496;18.412;2022-08-01T03:56:12;99487.41;;;13.13;73.70
67373;BME280;54257;54.496;18.412;2022-08-01T03:58:43;99489.83;;;13.24;73.95
67373;BME280;54257;54.496;18.412;2022-08-01T04:01:11;99489.98;;;13.31;74.84
67373;BME280;54257;54.496;18.412;2022-08-01T04:03:39;99491.70;;;13.38;75.13
67373;BME280;54257;54.496;18.412;2022-08-01T04:06:09;99487.03;;;13.46;75.43
67373;BME280;54257;54.496;18.412;2022-08-01T04:08:38;99488.90;;;13.55;75.94
67373;BME280;54257;54.496;18.412;2022-08-01T04:11:08;99486.13;;;13.64;76.74
67373;BME280;54257;54.496;18.412;2022-08-01T04:13:36;99483.00;;;13.71;77.27
67373;BME280;54257;54.496;18.412;2022-08-01T04:16:03;99485.38;;;13.79;77.85
67373;BME280;54257;54.496;18.412;2022-08-01T04:18:30;99481.05;;;13.86;77.83
67373;BME280;54257;54.496;18.412;2022-08-01T04:20:57;99478.25;;;13.97;77.85
67373;BME280;54257;54.496;18.412;2022-08-01T04:23:25;99479.58;;;14.07;78.14
67373;BME280;54257;54.496;18.412;2022-08-01T04:25:55;99475.05;;;14.17;77.90
67373;BME280;54257;54.496;18.412;2022-08-01T04:28:24;99477.55;;;14.28;78.12
67373;BME280;54257;54.496;18.412;2022-08-01T04:30:54;99481.62;;;14.40;78.08
67373;BME280;54257;54.496;18.412;2022-08-01T04:33:22;99480.35;;;14.52;78.03
67373;BME280;54257;54.496;18.412;2022-08-01T04:35:52;99482.48;;;14.65;77.98
67373;BME280;54257;54.496;18.412;2022-08-01T04:38:22;99480.17;;;14.76;77.76
67373;BME280;54257;54.496;18.412;2022-08-01T04:40:52;99477.84;;;14.87;77.79
67373;BME280;54257;54.496;18.412;2022-08-01T04:43:19;99477.23;;;14.98;77.86
67373;BME280;54257;54.496;18.412;2022-08-01T04:45:47;99477.80;;;15.08;77.89
67373;BME280;54257;54.496;18.412;2022-08-01T04:48:16;99477.02;;;15.17;77.99
67373;BME280;54257;54.496;18.412;2022-08-01T04:50:46;99479.34;;;15.27;77.72
67373;BME280;54257;54.496;18.412;2022-08-01T04:53:14;99477.00;;;15.37;77.50
67373;BME280;54257;54.496;18.412;2022-08-01T04:55:44;99478.11;;;15.46;77.23
67373;BME280;54257;54.496;18.412;2022-08-01T04:58:14;99480.08;;;15.54;77.21
67373;BME280;54257;54.496;18.412;2022-08-01T05:00:41;99481.39;;;15.61;77.13
67373;BME280;54257;54.496;18.412;2022-08-01T05:03:08;99483.73;;;15.67;77.08
67373;BME280;54257;54.496;18.412;2022-08-01T05:05:35;99484.88;;;15.74;76.96
67373;BME280;54257;54.496;18.412;2022-08-01T05:08:02;99485.46;;;15.82;77.01
67373;BME280;54257;54.496;18.412;2022-08-01T05:10:29;99487.95;;;15.89;77.05
67373;BME280;54257;54.496;18.412;2022-08-01T05:12:57;99483.91;;;15.94;77.04
67373;BME280;54257;54.496;18.412;2022-08-01T05:15:24;99484.19;;;16.00;76.93
67373;BME280;54257;54.496;18.412;2022-08-01T05:17:51;99482.87;;;16.09;76.85
67373;BME280;54257;54.496;18.412;2022-08-01T05:20:20;99485.83;;;16.19;76.86
67373;BME280;54257;54.496;18.412;2022-08-01T05:22:48;99484.80;;;16.30;76.96
67373;BME280;54257;54.496;18.412;2022-08-01T05:25:15;99487.40;;;16.42;76.84
67373;BME280;54257;54.496;18.412;2022-08-01T05:27:42;99483.96;;;16.53;76.90
67373;BME280;54257;54.496;18.412;2022-08-01T05:30:09;99483.27;;;16.65;76.74
67373;BME280;54257;54.496;18.412;2022-08-01T05:32:37;99485.13;;;16.79;76.69
67373;BME280;54257;54.496;18.412;2022-08-01T05:35:05;99481.61;;;16.94;76.71
67373;BME280;54257;54.496;18.412;2022-08-01T05:37:33;99481.51;;;17.09;76.64
67373;BME280;54257;54.496;18.412;2022-08-01T05:40:00;99476.89;;;17.26;76.68
67373;BME280;54257;54.496;18.412;2022-08-01T05:42:31;99476.24;;;17.41;76.65
67373;BME280;54257;54.496;18.412;2022-08-01T05:45:01;99475.22;;;17.59;76.56
67373;BME280;54257;54.496;18.412;2022-08-01T05:47:28;99473.52;;;17.76;76.27
67373;BME280;54257;54.496;18.412;2022-08-01T05:49:57;99472.57;;;17.89;75.59
67373;BME280;54257;54.496;18.412;2022-08-01T05:52:28;99469.54;;;18.01;75.32
67373;BME280;54257;54.496;18.412;2022-08-01T05:54:55;99470.73;;;18.09;74.75
67373;BME280;54257;54.496;18.412;2022-08-01T05:57:22;99467.78;;;18.18;74.43
67373;BME280;54257;54.496;18.412;2022-08-01T05:59:49;99471.02;;;18.28;74.07
67373;BME280;54257;54.496;18.412;2022-08-01T06:02:16;99466.58;;;18.40;73.85
67373;BME280;54257;54.496;18.412;2022-08-01T06:04:43;99466.23;;;18.56;73.43
67373;BME280;54257;54.496;18.412;2022-08-01T06:07:10;99465.74;;;18.69;73.08
67373;BME280;54257;54.496;18.412;2022-08-01T06:09:37;99465.58;;;18.83;72.94
67373;BME280;54257;54.496;18.412;2022-08-01T06:12:05;99465.45;;;19.01;72.77
67373;BME280;54257;54.496;18.412;2022-08-01T06:14:33;99465.31;;;19.26;72.85
67373;BME280;54257;54.496;18.412;2022-08-01T06:17:00;99463.42;;;19.64;73.18
67373;BME280;54257;54.496;18.412;2022-08-01T06:19:27;99466.50;;;20.07;72.67
67373;BME280;54257;54.496;18.412;2022-08-01T06:21:54;99466.48;;;20.42;70.92
67373;BME280;54257;54.496;18.412;2022-08-01T06:24:21;99463.41;;;20.73;70.44
67373;BME280;54257;54.496;18.412;2022-08-01T06:26:50;99463.86;;;21.05;69.36
67373;BME280;54257;54.496;18.412;2022-08-01T06:29:17;99459.07;;;21.29;68.28
67373;BME280;54257;54.496;18.412;2022-08-01T06:31:44;99460.27;;;21.54;67.10
67373;BME280;54257;54.496;18.412;2022-08-01T06:34:11;99464.08;;;21.78;66.19
67373;BME280;54257;54.496;18.412;2022-08-01T06:36:38;99465.83;;;22.01;65.39
67373;BME280;54257;54.496;18.412;2022-08-01T06:39:05;99465.59;;;22.30;64.50
67373;BME280;54257;54.496;18.412;2022-08-01T06:41:32;99466.70;;;22.59;63.36
67373;BME280;54257;54.496;18.412;2022-08-01T06:43:59;99463.42;;;22.88;62.82
67373;BME280;54257;54.496;18.412;2022-08-01T06:46:29;99461.67;;;23.17;61.56
67373;BME280;54257;54.496;18.412;2022-08-01T06:48:56;99460.39;;;23.42;60.50
67373;BME280;54257;54.496;18.412;2022-08-01T06:51:23;99462.20;;;23.65;59.00
67373;BME280;54257;54.496;18.412;2022-08-01T06:53:50;99466.42;;;23.91;58.36
67373;BME280;54257;54.496;18.412;2022-08-01T06:56:17;99466.28;;;24.13;57.03
67373;BME280;54257;54.496;18.412;2022-08-01T06:58:44;99464.63;;;24.29;55.52
67373;BME280;54257;54.496;18.412;2022-08-01T07:01:12;99463.58;;;24.48;55.01
67373;BME280;54257;54.496;18.412;2022-08-01T07:03:39;99456.24;;;24.69;54.75
67373;BME280;54257;54.496;18.412;2022-08-01T07:06:06;99459.23;;;25.00;54.73
67373;BME280;54257;54.496;18.412;2022-08-01T07:08:36;99453.02;;;25.29;52.35
67373;BME280;54257;54.496;18.412;2022-08-01T07:11:03;99454.96;;;25.43;50.00
67373;BME280;54257;54.496;18.412;2022-08-01T07:13:30;99456.28;;;25.54;49.55
67373;BME280;54257;54.496;18.412;2022-08-01T07:15:57;99460.94;;;25.65;49.71
67373;BME280;54257;54.496;18.412;2022-08-01T07:18:25;99462.33;;;25.85;50.46
67373;BME280;54257;54.496;18.412;2022-08-01T07:20:52;99456.79;;;26.10;49.99
67373;BME280;54257;54.496;18.412;2022-08-01T07:23:19;99461.17;;;26.25;47.99
67373;BME280;54257;54.496;18.412;2022-08-01T07:25:47;99459.98;;;26.47;47.97
67373;BME280;54257;54.496;18.412;2022-08-01T07:28:15;99460.45;;;26.78;47.35
67373;BME280;54257;54.496;18.412;2022-08-01T07:30:42;99461.36;;;26.98;46.27
67373;BME280;54257;54.496;18.412;2022-08-01T07:33:12;99461.14;;;27.11;46.22
67373;BME280;54257;54.496;18.412;2022-08-01T07:35:39;99460.77;;;27.38;46.09
67373;BME280;54257;54.496;18.412;2022-08-01T07:38:07;99467.75;;;27.64;44.83
67373;BME280;54257;54.496;18.412;2022-08-01T07:40:34;99467.69;;;27.94;44.29
67373;BME280;54257;54.496;18.412;2022-08-01T07:43:01;99466.26;;;28.22;43.00
67373;BME280;54257;54.496;18.412;2022-08-01T07:45:30;99465.23;;;28.30;42.74
67373;BME280;54257;54.496;18.412;2022-08-01T07:48:02;99466.08;;;28.14;41.44
67373;BME280;54257;54.496;18.412;2022-08-01T07:50:29;99466.78;;;28.22;41.82
67373;BME280;54257;54.496;18.412;2022-08-01T07:52:57;99465.81;;;28.45;40.98
67373;BME280;54257;54.496;18.412;2022-08-01T07:55:24;99469.53;;;28.45;41.01
67373;BME280;54257;54.496;18.412;2022-08-01T07:57:51;99463.53;;;28.29;39.78
67373;BME280;54257;54.496;18.412;2022-08-01T08:00:18;99461.11;;;28.25;38.73
67373;BME280;54257;54.496;18.412;2022-08-01T08:02:45;99460.42;;;28.25;39.77
67373;BME280;54257;54.496;18.412;2022-08-01T08:05:12;99460.98;;;28.11;39.20
67373;BME280;54257;54.496;18.412;2022-08-01T08:07:39;99456.55;;;27.75;39.16
67373;BME280;54257;54.496;18.412;2022-08-01T08:10:07;99455.34;;;27.41;39.71
67373;BME280;54257;54.496;18.412;2022-08-01T08:12:34;99459.16;;;27.21;40.33
67373;BME280;54257;54.496;18.412;2022-08-01T08:15:01;99454.14;;;27.40;40.48
67373;BME280;54257;54.496;18.412;2022-08-01T08:17:32;99452.21;;;27.72;39.40
67373;BME280;54257;54.496;18.412;2022-08-01T08:20:00;99455.40;;;27.96;39.78
67373;BME280;54257;54.496;18.412;2022-08-01T08:22:27;99459.09;;;28.24;38.86
67373;BME280;54257;54.496;18.412;2022-08-01T08:24:54;99462.96;;;28.54;37.87
67373;BME280;54257;54.496;18.412;2022-08-01T08:27:21;99460.61;;;28.84;38.26
67373;BME280;54257;54.496;18.412;2022-08-01T08:29:48;99458.73;;;29.15;37.10
67373;BME280;54257;54.496;18.412;2022-08-01T08:32:15;99456.12;;;28.88;36.51
67373;BME280;54257;54.496;18.412;2022-08-01T08:34:42;99457.55;;;28.75;37.11
67373;BME280;54257;54.496;18.412;2022-08-01T08:37:10;99460.38;;;28.45;37.52
67373;BME280;54257;54.496;18.412;2022-08-01T08:39:38;99464.83;;;28.74;38.44
67373;BME280;54257;54.496;18.412;2022-08-01T08:42:10;99465.82;;;29.01;37.57
67373;BME280;54257;54.496;18.412;2022-08-01T08:44:40;99470.32;;;28.97;36.98
67373;BME280;54257;54.496;18.412;2022-08-01T08:47:10;99468.78;;;28.83;36.76
67373;BME280;54257;54.496;18.412;2022-08-01T08:49:38;99472.98;;;28.67;36.05
67373;BME280;54257;54.496;18.412;2022-08-01T08:52:05;99471.98;;;28.53;36.71
67373;BME280;54257;54.496;18.412;2022-08-01T08:54:33;99469.59;;;28.81;36.54
67373;BME280;54257;54.496;18.412;2022-08-01T08:57:02;99470.66;;;29.15;34.97
67373;BME280;54257;54.496;18.412;2022-08-01T08:59:30;99469.72;;;29.42;34.57
67373;BME280;54257;54.496;18.412;2022-08-01T09:01:58;99467.80;;;29.60;34.42
67373;BME280;54257;54.496;18.412;2022-08-01T09:04:26;99468.35;;;29.84;33.62
67373;BME280;54257;54.496;18.412;2022-08-01T09:06:54;99460.90;;;30.02;32.53
67373;BME280;54257;54.496;18.412;2022-08-01T09:09:21;99459.48;;;29.95;31.97
67373;BME280;54257;54.496;18.412;2022-08-01T09:11:48;99459.81;;;30.15;32.21
67373;BME280;54257;54.496;18.412;2022-08-01T09:14:19;99458.91;;;30.42;31.43
67373;BME280;54257;54.496;18.412;2022-08-01T09:17:05;99457.21;;;30.70;32.54
67373;BME280;54257;54.496;18.412;2022-08-01T09:19:40;99458.13;;;30.99;32.70
67373;BME280;54257;54.496;18.412;2022-08-01T09:22:11;99467.41;;;31.21;32.15
67373;BME280;54257;54.496;18.412;2022-08-01T09:24:40;99467.08;;;31.33;30.99
67373;BME280;54257;54.496;18.412;2022-08-01T09:27:21;99467.22;;;31.22;31.06
67373;BME280;54257;54.496;18.412;2022-08-01T09:29:52;99465.65;;;31.28;30.80
67373;BME280;54257;54.496;18.412;2022-08-01T09:32:20;99463.52;;;31.53;30.62
67373;BME280;54257;54.496;18.412;2022-08-01T09:34:47;99468.01;;;31.71;29.64
67373;BME280;54257;54.496;18.412;2022-08-01T09:37:14;99467.81;;;31.82;29.86
67373;BME280;54257;54.496;18.412;2022-08-01T09:39:44;99462.48;;;31.82;28.84
67373;BME280;54257;54.496;18.412;2022-08-01T09:42:26;99461.83;;;31.57;28.96
67373;BME280;54257;54.496;18.412;2022-08-01T09:44:53;99462.59;;;31.56;29.33
67373;BME280;54257;54.496;18.412;2022-08-01T09:47:21;99465.43;;;31.58;28.47
67373;BME280;54257;54.496;18.412;2022-08-01T09:49:56;99464.97;;;31.12;28.15
67373;BME280;54257;54.496;18.412;2022-08-01T09:52:25;99462.15;;;30.91;29.08
67373;BME280;54257;54.496;18.412;2022-08-01T09:54:57;99463.34;;;31.15;29.60
67373;BME280;54257;54.496;18.412;2022-08-01T09:57:26;99462.95;;;31.58;29.57
67373;BME280;54257;54.496;18.412;2022-08-01T09:59:56;99465.61;;;31.83;29.39
67373;BME280;54257;54.496;18.412;2022-08-01T10:02:37;99468.96;;;32.23;28.87
67373;BME280;54257;54.496;18.412;2022-08-01T10:05:09;99468.87;;;32.57;28.12
67373;BME280;54257;54.496;18.412;2022-08-01T10:08:00;99469.00;;;32.76;27.76
67373;BME280;54257;54.496;18.412;2022-08-01T10:10:28;99472.99;;;32.94;26.56
67373;BME280;54257;54.496;18.412;2022-08-01T10:12:56;99469.67;;;32.89;26.07
67373;BME280;54257;54.496;18.412;2022-08-01T10:15:24;99468.56;;;32.68;25.63
67373;BME280;54257;54.496;18.412;2022-08-01T10:17:58;99469.48;;;32.34;26.61
67373;BME280;54257;54.496;18.412;2022-08-01T10:20:30;99472.50;;;32.45;26.92
67373;BME280;54257;54.496;18.412;2022-08-01T10:23:03;99462.98;;;32.82;27.04
67373;BME280;54257;54.496;18.412;2022-08-01T10:25:34;99461.48;;;33.09;25.98
67373;BME280;54257;54.496;18.412;2022-08-01T10:28:10;99463.17;;;32.53;25.51
67373;BME280;54257;54.496;18.412;2022-08-01T10:30:44;99462.21;;;32.17;26.93
67373;BME280;54257;54.496;18.412;2022-08-01T10:33:12;99463.63;;;32.05;26.85
67373;BME280;54257;54.496;18.412;2022-08-01T10:35:45;99463.42;;;31.95;27.67
67373;BME280;54257;54.496;18.412;2022-08-01T10:38:13;99465.12;;;32.00;27.76
67373;BME280;54257;54.496;18.412;2022-08-01T10:40:42;99465.52;;;31.91;27.66
67373;BME280;54257;54.496;18.412;2022-08-01T10:43:10;99467.85;;;31.77;28.62
67373;BME280;54257;54.496;18.412;2022-08-01T10:45:38;99463.22;;;31.55;30.72
67373;BME280;54257;54.496;18.412;2022-08-01T10:48:26;99466.08;;;31.06;32.30
67373;BME280;54257;54.496;18.412;2022-08-01T10:50:58;99466.27;;;30.42;33.55
67373;BME280;54257;54.496;18.412;2022-08-01T10:53:27;99467.26;;;29.92;34.55
67373;BME280;54257;54.496;18.412;2022-08-01T10:58:34;99473.41;;;28.36;36.98
67373;BME280;54257;54.496;18.412;2022-08-01T11:01:25;99475.80;;;28.38;37.36
67373;BME280;54257;54.496;18.412;2022-08-01T11:06:40;99473.08;;;28.61;37.14
67373;BME280;54257;54.496;18.412;2022-08-01T11:12:01;99467.34;;;28.94;36.82
67373;BME280;54257;54.496;18.412;2022-08-01T11:14:31;99469.34;;;29.16;37.08
67373;BME280;54257;54.496;18.412;2022-08-01T11:26:05;99477.21;;;29.78;34.97
67373;BME280;54257;54.496;18.412;2022-08-01T11:30:46;99477.73;;;29.83;34.70
67373;BME280;54257;54.496;18.412;2022-08-01T11:33:16;99472.85;;;29.93;34.50
67373;BME280;54257;54.496;18.412;2022-08-01T11:38:44;99476.83;;;29.36;34.19
67373;BME280;54257;54.496;18.412;2022-08-01T11:44:00;99478.98;;;29.01;35.32
67373;BME280;54257;54.496;18.412;2022-08-01T11:52:12;99481.58;;;28.81;36.15
67373;BME280;54257;54.496;18.412;2022-08-01T11:54:54;99482.63;;;28.70;36.27
67373;BME280;54257;54.496;18.412;2022-08-01T11:57:27;99486.11;;;28.68;36.28
67373;BME280;54257;54.496;18.412;2022-08-01T11:59:58;99487.05;;;28.83;36.87
67373;BME280;54257;54.496;18.412;2022-08-01T12:02:30;99483.83;;;29.18;36.37
67373;BME280;54257;54.496;18.412;2022-08-01T12:05:00;99480.08;;;29.45;35.70
67373;BME280;54257;54.496;18.412;2022-08-01T12:07:30;99482.66;;;29.43;35.25
67373;BME280;54257;54.496;18.412;2022-08-01T12:10:19;99477.80;;;29.65;35.22
67373;BME280;54257;54.496;18.412;2022-08-01T12:12:55;99477.48;;;29.52;34.74
67373;BME280;54257;54.496;18.412;2022-08-01T12:15:24;99481.97;;;29.40;35.22
67373;BME280;54257;54.496;18.412;2022-08-01T12:18:00;99480.58;;;29.53;34.97
67373;BME280;54257;54.496;18.412;2022-08-01T12:20:33;99482.77;;;29.67;35.00
67373;BME280;54257;54.496;18.412;2022-08-01T12:23:04;99480.46;;;29.82;34.64
67373;BME280;54257;54.496;18.412;2022-08-01T12:25:35;99475.54;;;29.92;34.63
67373;BME280;54257;54.496;18.412;2022-08-01T12:28:07;99472.56;;;30.04;34.18
67373;BME280;54257;54.496;18.412;2022-08-01T12:30:36;99475.45;;;30.08;34.16
67373;BME280;54257;54.496;18.412;2022-08-01T12:33:07;99476.84;;;30.18;33.93
67373;BME280;54257;54.496;18.412;2022-08-01T12:35:36;99480.55;;;30.16;33.70
67373;BME280;54257;54.496;18.412;2022-08-01T12:38:22;99477.21;;;29.81;33.57
67373;BME280;54257;54.496;18.412;2022-08-01T12:40:51;99479.64;;;29.41;33.94
67373;BME280;54257;54.496;18.412;2022-08-01T12:43:20;99478.94;;;28.94;34.75
67373;BME280;54257;54.496;18.412;2022-08-01T12:45:50;99484.92;;;29.13;35.60
67373;BME280;54257;54.496;18.412;2022-08-01T12:48:18;99476.55;;;29.34;35.40
67373;BME280;54257;54.496;18.412;2022-08-01T12:50:48;99486.85;;;29.28;35.16
67373;BME280;54257;54.496;18.412;2022-08-01T12:53:16;99484.31;;;29.34;35.80
67373;BME280;54257;54.496;18.412;2022-08-01T12:58:17;99482.33;;;29.93;35.36
67373;BME280;54257;54.496;18.412;2022-08-01T13:00:48;99482.87;;;30.03;34.93
67373;BME280;54257;54.496;18.412;2022-08-01T13:03:19;99482.84;;;30.16;34.81
67373;BME280;54257;54.496;18.412;2022-08-01T13:05:54;99489.83;;;30.39;34.91
67373;BME280;54257;54.496;18.412;2022-08-01T13:08:23;99494.48;;;30.42;34.47
67373;BME280;54257;54.496;18.412;2022-08-01T13:11:08;99499.78;;;29.86;34.95
67373;BME280;54257;54.496;18.412;2022-08-01T13:13:44;99501.39;;;29.40;35.66
67373;BME280;54257;54.496;18.412;2022-08-01T13:16:21;99502.50;;;29.13;36.18
67373;BME280;54257;54.496;18.412;2022-08-01T13:18:52;99502.77;;;28.85;36.71
67373;BME280;54257;54.496;18.412;2022-08-01T13:21:25;99505.30;;;28.84;37.25
67373;BME280;54257;54.496;18.412;2022-08-01T13:24:06;99508.37;;;29.09;37.16
67373;BME280;54257;54.496;18.412;2022-08-01T13:26:52;99506.11;;;29.32;36.95
67373;BME280;54257;54.496;18.412;2022-08-01T13:29:37;99505.89;;;29.41;36.66
67373;BME280;54257;54.496;18.412;2022-08-01T13:32:19;99507.69;;;29.58;36.72
67373;BME280;54257;54.496;18.412;2022-08-01T13:34:47;99507.98;;;29.72;36.53
67373;BME280;54257;54.496;18.412;2022-08-01T13:37:14;99508.64;;;29.82;36.23
67373;BME280;54257;54.496;18.412;2022-08-01T13:39:43;99513.05;;;29.62;35.73
67373;BME280;54257;54.496;18.412;2022-08-01T13:42:14;99511.05;;;29.34;36.08
67373;BME280;54257;54.496;18.412;2022-08-01T13:44:42;99517.16;;;28.99;35.74
67373;BME280;54257;54.496;18.412;2022-08-01T13:47:12;99519.95;;;28.56;36.37